Time;durP1;ratioP1;P1;durP2;ratioP2;P2;SDS_P1;SDS_P2;PMS_P1;PMS_P2;Temp;Humidity;BMP_temperature;BMP_pressure;BME280_temperature;BME280_humidity;BME280_pressure;Samples;Min_cycle;Max_cycle;Signal;HPM_P1;HPM_P2
2024/01/01 00:01:44;;;;;;;2.72;1.73;;;;;;;;;;5015766;28;20084;-31
2024/01/01 00:04:11;;;;;;;1.90;1.30;;;;;;;;;;5015289;28;20095;-29
2024/01/01 00:06:37;;;;;;;2.85;1.70;;;;;;;;;;5015659;28;20050;-32
2024/01/01 00:09:03;;;;;;;3.22;2.20;;;;;;;;;;5015658;28;20034;-30
2024/01/01 00:11:30;;;;;;;1.95;1.55;;;;;;;;;;5015348;28;20022;-30
2024/01/01 00:13:56;;;;;;;2.33;1.85;;;;;;;;;;5015226;28;20030;-32
2024/01/01 00:16:22;;;;;;;3.00;2.00;;;;;;;;;;5015404;28;20026;-29
2024/01/01 00:18:48;;;;;;;2.47;1.65;;;;;;;;;;5015224;28;20432;-32
2024/01/01 00:21:14;;;;;;;3.58;1.88;;;;;;;;;;5015181;28;20022;-31
2024/01/01 00:23:40;;;;;;;5.40;2.55;;;;;;;;;;5015234;28;20053;-30
2024/01/01 00:26:06;;;;;;;2.65;2.00;;;;;;;;;;5015116;28;20018;-30
2024/01/01 00:28:33;;;;;;;2.65;1.70;;;;;;;;;;5015351;28;20033;-31
2024/01/01 00:30:59;;;;;;;2.45;1.80;;;;;;;;;;5015329;28;20030;-30
2024/01/01 00:33:25;;;;;;;3.13;2.03;;;;;;;;;;5014982;28;20040;-31
2024/01/01 00:35:51;;;;;;;2.15;1.98;;;;;;;;;;5014906;28;20063;-30
2024/01/01 00:38:17;;;;;;;1.65;1.50;;;;;;;;;;4997649;28;20521;-31
2024/01/01 00:40:43;;;;;;;2.90;1.80;;;;;;;;;;5014885;28;20030;-29
2024/01/01 00:43:10;;;;;;;3.45;1.65;;;;;;;;;;5015382;28;20056;-30
2024/01/01 00:45:37;;;;;;;3.35;2.13;;;;;;;;;;5015113;28;20341;-30
2024/01/01 00:48:03;;;;;;;2.22;1.90;;;;;;;;;;5014896;28;20033;-30
2024/01/01 00:50:29;;;;;;;3.03;2.10;;;;;;;;;;5015057;28;20030;-31
2024/01/01 00:52:55;;;;;;;2.60;1.75;;;;;;;;;;5015034;28;20106;-30
2024/01/01 00:55:21;;;;;;;2.35;1.73;;;;;;;;;;5014793;28;20169;-30
2024/01/01 00:57:47;;;;;;;1.95;1.67;;;;;;;;;;5015706;28;20034;-31
2024/01/01 01:00:14;;;;;;;3.45;2.20;;;;;;;;;;5014783;28;20349;-30
2024/01/01 01:02:40;;;;;;;1.67;1.55;;;;;;;;;;5014441;28;20045;-31
2024/01/01 01:05:06;;;;;;;2.15;1.85;;;;;;;;;;5016218;28;20040;-32
2024/01/01 01:07:32;;;;;;;3.30;1.85;;;;;;;;;;5018706;28;20081;-31
2024/01/01 01:09:58;;;;;;;1.85;1.70;;;;;;;;;;5018632;28;20036;-32
2024/01/01 01:12:27;;;;;;;2.35;1.75;;;;;;;;;;5018741;28;20420;-29
2024/01/01 01:14:53;;;;;;;3.60;2.47;;;;;;;;;;5018809;28;20037;-30
2024/01/01 01:17:19;;;;;;;3.40;2.20;;;;;;;;;;5018701;28;20025;-32
2024/01/01 01:19:45;;;;;;;3.08;1.80;;;;;;;;;;5001181;28;20477;-32
2024/01/01 01:22:11;;;;;;;2.40;1.80;;;;;;;;;;5018672;28;20052;-29
2024/01/01 01:24:38;;;;;;;3.25;2.00;;;;;;;;;;5001127;28;20018;-31
2024/01/01 01:27:04;;;;;;;1.70;1.30;;;;;;;;;;5018645;28;20030;-29
2024/01/01 01:29:30;;;;;;;3.15;1.92;;;;;;;;;;5018823;28;20445;-30
2024/01/01 01:31:56;;;;;;;3.22;1.92;;;;;;;;;;5018217;28;20069;-32
2024/01/01 01:34:22;;;;;;;1.92;1.40;;;;;;;;;;5018257;28;20133;-29
2024/01/01 01:36:48;;;;;;;4.05;2.50;;;;;;;;;;5018371;28;20030;-30
2024/01/01 01:39:15;;;;;;;3.78;1.80;;;;;;;;;;5018392;28;20464;-30
2024/01/01 01:41:41;;;;;;;2.63;1.90;;;;;;;;;;5018368;28;20373;-30
2024/01/01 01:44:07;;;;;;;3.00;2.10;;;;;;;;;;5018169;28;20110;-30
2024/01/01 01:46:34;;;;;;;2.15;1.70;;;;;;;;;;5018013;28;20037;-31
2024/01/01 01:49:01;;;;;;;2.83;1.80;;;;;;;;;;5018216;28;20022;-30
2024/01/01 01:51:28;;;;;;;3.25;1.77;;;;;;;;;;5017828;28;20117;-30
2024/01/01 01:53:55;;;;;;;3.58;1.73;;;;;;;;;;5017813;28;20021;-32
2024/01/01 01:56:21;;;;;;;2.25;1.88;;;;;;;;;;5017756;28;20366;-30
2024/01/01 01:58:48;;;;;;;1.50;1.40;;;;;;;;;;5017784;28;20029;-32
2024/01/01 02:01:14;;;;;;;2.92;1.83;;;;;;;;;;5017736;28;20097;-31
2024/01/01 02:03:40;;;;;;;1.67;1.40;;;;;;;;;;5017405;28;20057;-32
2024/01/01 02:06:06;;;;;;;2.05;1.45;;;;;;;;;;5017623;28;20037;-31
2024/01/01 02:08:33;;;;;;;3.58;2.03;;;;;;;;;;5017589;28;20033;-31
2024/01/01 02:10:59;;;;;;;1.85;1.70;;;;;;;;;;5017810;28;20412;-29
2024/01/01 02:13:27;;;;;;;1.88;1.63;;;;;;;;;;5017420;28;20037;-30
2024/01/01 02:15:53;;;;;;;2.70;1.70;;;;;;;;;;5017122;28;20036;-29
2024/01/01 02:18:20;;;;;;;2.60;1.98;;;;;;;;;;5017324;28;20113;-32
2024/01/01 02:20:46;;;;;;;2.65;1.67;;;;;;;;;;5017372;28;20026;-30
2024/01/01 02:23:14;;;;;;;1.90;1.67;;;;;;;;;;5017503;28;20105;-32
2024/01/01 02:25:40;;;;;;;1.77;1.52;;;;;;;;;;5017257;28;20029;-30
2024/01/01 02:28:06;;;;;;;2.03;1.60;;;;;;;;;;5017235;28;20029;-30
2024/01/01 02:30:32;;;;;;;3.30;1.77;;;;;;;;;;5017441;28;20353;-28
2024/01/01 02:32:58;;;;;;;2.25;1.80;;;;;;;;;;5017060;28;20033;-30
2024/01/01 02:35:24;;;;;;;2.75;1.70;;;;;;;;;;5017352;28;20516;-34
2024/01/01 02:37:50;;;;;;;2.78;1.80;;;;;;;;;;5017161;28;20122;-29
2024/01/01 02:40:16;;;;;;;2.05;1.60;;;;;;;;;;5017001;28;20021;-31
2024/01/01 02:42:43;;;;;;;2.58;1.70;;;;;;;;;;5016804;28;20040;-32
2024/01/01 02:45:10;;;;;;;3.67;1.88;;;;;;;;;;5016881;28;20053;-31
2024/01/01 02:47:37;;;;;;;3.72;1.95;;;;;;;;;;5016793;28;20060;-30
2024/01/01 02:50:03;;;;;;;3.30;1.85;;;;;;;;;;5016712;28;20034;-31
2024/01/01 02:52:30;;;;;;;1.95;1.60;;;;;;;;;;5016683;28;20036;-30
2024/01/01 02:54:56;;;;;;;2.83;2.00;;;;;;;;;;5016683;28;20030;-30
2024/01/01 02:57:26;;;;;;;3.67;1.80;;;;;;;;;;5016575;28;20026;-31
2024/01/01 02:59:52;;;;;;;2.55;1.75;;;;;;;;;;5016579;28;20018;-32
2024/01/01 03:02:18;;;;;;;1.63;1.52;;;;;;;;;;5016520;28;20036;-32
2024/01/01 03:04:45;;;;;;;2.40;1.88;;;;;;;;;;5016819;28;20021;-29
2024/01/01 03:07:11;;;;;;;3.38;1.80;;;;;;;;;;5016461;28;20112;-30
2024/01/01 03:09:37;;;;;;;2.80;1.95;;;;;;;;;;5016660;28;20026;-29
2024/01/01 03:12:05;;;;;;;2.28;1.98;;;;;;;;;;5016607;28;20164;-31
2024/01/01 03:14:32;;;;;;;2.10;1.63;;;;;;;;;;5016856;28;20383;-30
2024/01/01 03:16:58;;;;;;;2.95;1.90;;;;;;;;;;5016225;28;20030;-29
2024/01/01 03:19:24;;;;;;;2.75;1.73;;;;;;;;;;5016518;28;20322;-31
2024/01/01 03:21:50;;;;;;;2.63;1.98;;;;;;;;;;5016395;28;20050;-29
2024/01/01 03:24:16;;;;;;;3.85;1.92;;;;;;;;;;5016146;28;20442;-30
2024/01/01 03:26:42;;;;;;;2.20;2.00;;;;;;;;;;5016265;28;20060;-30
2024/01/01 03:29:08;;;;;;;1.90;1.70;;;;;;;;;;5015563;28;20053;-33
2024/01/01 03:31:34;;;;;;;3.47;1.95;;;;;;;;;;5016285;28;20030;-30
2024/01/01 03:34:00;;;;;;;4.07;2.47;;;;;;;;;;5016201;28;20030;-30
2024/01/01 03:36:27;;;;;;;2.90;2.28;;;;;;;;;;5016136;28;20026;-30
2024/01/01 03:38:53;;;;;;;3.05;2.20;;;;;;;;;;5015914;28;20099;-29
2024/01/01 03:41:19;;;;;;;2.38;1.80;;;;;;;;;;5016138;28;20033;-31
2024/01/01 03:43:45;;;;;;;3.03;1.73;;;;;;;;;;5015769;28;20045;-32
2024/01/01 03:46:11;;;;;;;2.10;1.60;;;;;;;;;;5016539;28;20042;-30
2024/01/01 03:48:37;;;;;;;2.72;1.73;;;;;;;;;;5015743;28;20022;-29
2024/01/01 03:51:03;;;;;;;2.42;1.85;;;;;;;;;;5015683;28;20112;-30
2024/01/01 03:53:29;;;;;;;3.08;1.98;;;;;;;;;;5015595;28;20025;-30
2024/01/01 03:55:55;;;;;;;2.47;2.25;;;;;;;;;;5015539;28;20488;-30
2024/01/01 03:58:22;;;;;;;3.00;1.63;;;;;;;;;;5015848;28;20096;-30
2024/01/01 04:00:48;;;;;;;2.40;1.63;;;;;;;;;;5015521;28;20364;-32
2024/01/01 04:03:14;;;;;;;2.47;1.75;;;;;;;;;;5015171;28;20046;-30
2024/01/01 04:05:40;;;;;;;2.63;1.88;;;;;;;;;;5015447;28;20400;-29
2024/01/01 04:08:06;;;;;;;2.50;1.70;;;;;;;;;;5015418;28;20033;-30
2024/01/01 04:10:32;;;;;;;4.00;2.00;;;;;;;;;;5015377;28;20033;-30
2024/01/01 04:12:58;;;;;;;4.38;2.03;;;;;;;;;;5015240;28;20037;-30
2024/01/01 04:15:24;;;;;;;3.05;2.08;;;;;;;;;;5015266;28;20449;-32
2024/01/01 04:17:51;;;;;;;1.95;1.27;;;;;;;;;;5015162;28;20026;-29
2024/01/01 04:20:17;;;;;;;4.38;1.85;;;;;;;;;;5015448;28;20018;-29
2024/01/01 04:22:44;;;;;;;3.78;2.58;;;;;;;;;;5015271;28;20365;-30
2024/01/01 04:25:11;;;;;;;3.00;1.77;;;;;;;;;;5015144;28;20021;-30
2024/01/01 04:27:37;;;;;;;4.97;2.53;;;;;;;;;;5015083;28;20029;-32
2024/01/01 04:30:06;;;;;;;3.00;1.85;;;;;;;;;;5015342;28;20060;-32
2024/01/01 04:32:32;;;;;;;2.90;1.88;;;;;;;;;;5014963;28;20033;-30
2024/01/01 04:34:58;;;;;;;4.38;2.38;;;;;;;;;;5015290;28;20034;-29
2024/01/01 04:37:24;;;;;;;3.28;1.90;;;;;;;;;;5014911;28;20458;-32
2024/01/01 04:39:50;;;;;;;3.22;1.65;;;;;;;;;;5014892;28;20034;-30
2024/01/01 04:42:17;;;;;;;4.53;1.83;;;;;;;;;;5014876;28;20022;-30
2024/01/01 04:44:43;;;;;;;3.65;2.28;;;;;;;;;;5015140;28;20030;-30
2024/01/01 04:47:09;;;;;;;2.58;2.05;;;;;;;;;;5015110;28;20029;-31
2024/01/01 04:49:35;;;;;;;2.63;1.95;;;;;;;;;;5014842;28;20108;-34
2024/01/01 04:52:02;;;;;;;3.65;1.70;;;;;;;;;;5015286;28;20032;-29
2024/01/01 04:54:29;;;;;;;2.85;2.08;;;;;;;;;;5015815;28;20036;-30
2024/01/01 04:56:55;;;;;;;2.17;1.50;;;;;;;;;;5014657;28;20030;-30
2024/01/01 04:59:21;;;;;;;3.03;1.88;;;;;;;;;;5014740;28;20022;-30
2024/01/01 05:01:47;;;;;;;3.20;2.03;;;;;;;;;;5014633;28;20033;-30
2024/01/01 05:04:13;;;;;;;1.90;1.50;;;;;;;;;;5014574;28;20413;-31
2024/01/01 05:06:39;;;;;;;2.22;1.60;;;;;;;;;;5014699;28;20101;-33
2024/01/01 05:09:06;;;;;;;3.42;1.90;;;;;;;;;;5014709;28;20022;-30
2024/01/01 05:11:33;;;;;;;2.95;2.00;;;;;;;;;;5014640;28;20108;-29
2024/01/01 05:14:00;;;;;;;3.83;2.33;;;;;;;;;;5014599;28;20022;-31
2024/01/01 05:16:26;;;;;;;3.30;1.80;;;;;;;;;;5014758;28;20040;-32
2024/01/01 05:18:52;;;;;;;3.13;1.92;;;;;;;;;;5014571;28;20029;-30
2024/01/01 05:21:18;;;;;;;2.45;1.75;;;;;;;;;;5014555;28;20032;-32
2024/01/01 05:23:44;;;;;;;3.25;2.10;;;;;;;;;;5014495;28;20021;-30
2024/01/01 05:26:10;;;;;;;4.43;1.80;;;;;;;;;;5014786;28;20022;-31
2024/01/01 05:28:36;;;;;;;2.92;2.42;;;;;;;;;;5014778;28;20069;-30
2024/01/01 05:31:02;;;;;;;3.08;2.10;;;;;;;;;;5014382;28;20041;-31
2024/01/01 05:33:29;;;;;;;2.83;2.03;;;;;;;;;;5014480;28;20029;-31
2024/01/01 05:35:55;;;;;;;1.92;1.70;;;;;;;;;;5014384;28;20026;-30
2024/01/01 05:38:21;;;;;;;3.25;1.80;;;;;;;;;;5014427;28;20022;-30
2024/01/01 05:40:47;;;;;;;3.75;2.10;;;;;;;;;;5014386;28;20045;-29
2024/01/01 05:43:14;;;;;;;4.20;1.98;;;;;;;;;;5014290;28;20056;-29
2024/01/01 05:45:40;;;;;;;2.83;2.05;;;;;;;;;;5014339;28;20036;-29
2024/01/01 05:48:06;;;;;;;2.22;1.98;;;;;;;;;;5014575;28;20357;-30
2024/01/01 05:50:32;;;;;;;2.35;1.40;;;;;;;;;;5015079;28;20430;-30
2024/01/01 05:52:59;;;;;;;2.53;1.77;;;;;;;;;;5018607;28;20096;-30
2024/01/01 05:55:25;;;;;;;2.35;1.52;;;;;;;;;;5017772;28;20030;-31
2024/01/01 05:57:52;;;;;;;2.55;1.60;;;;;;;;;;5017746;28;20026;-30
2024/01/01 06:03:18;;;;;;;2.75;1.70;;;;;;;;;;5383325;23;20049;-24
2024/01/01 06:05:45;;;;;;;2.85;1.77;;;;;;;;;;5000393;28;20475;-23
2024/01/01 06:08:11;;;;;;;3.40;1.90;;;;;;;;;;5017910;28;20026;-23
2024/01/01 06:10:37;;;;;;;3.10;1.92;;;;;;;;;;5018312;28;20087;-22
2024/01/01 06:13:04;;;;;;;3.33;2.25;;;;;;;;;;5017537;28;20040;-23
2024/01/01 06:15:30;;;;;;;2.53;1.60;;;;;;;;;;5017757;28;20383;-23
2024/01/01 06:17:56;;;;;;;2.72;2.00;;;;;;;;;;5017401;28;20380;-22
2024/01/01 06:20:22;;;;;;;3.60;2.08;;;;;;;;;;5017645;28;20025;-23
2024/01/01 06:22:49;;;;;;;3.83;1.70;;;;;;;;;;5017243;28;20029;-24
2024/01/01 06:25:15;;;;;;;3.55;1.98;;;;;;;;;;5017292;28;20364;-25
2024/01/01 06:27:41;;;;;;;2.78;1.88;;;;;;;;;;5017526;28;20104;-24
2024/01/01 06:30:08;;;;;;;3.42;1.92;;;;;;;;;;5017241;28;20365;-23
2024/01/01 06:32:34;;;;;;;2.67;1.85;;;;;;;;;;5017120;28;20052;-23
2024/01/01 06:35:00;;;;;;;3.50;1.85;;;;;;;;;;5017427;28;20076;-24
2024/01/01 06:37:27;;;;;;;2.80;1.52;;;;;;;;;;5016990;28;20360;-24
2024/01/01 06:39:53;;;;;;;2.75;1.90;;;;;;;;;;5017276;28;20034;-24
2024/01/01 06:42:19;;;;;;;2.88;1.85;;;;;;;;;;5016946;28;20418;-24
2024/01/01 06:44:45;;;;;;;3.95;1.77;;;;;;;;;;5016928;28;20056;-24
2024/01/01 06:47:11;;;;;;;2.80;1.90;;;;;;;;;;5017145;28;20033;-24
2024/01/01 06:49:37;;;;;;;3.85;2.15;;;;;;;;;;5016822;28;20037;-22
2024/01/01 06:52:06;;;;;;;3.22;1.77;;;;;;;;;;5016734;28;20088;-24
2024/01/01 06:54:32;;;;;;;1.95;1.48;;;;;;;;;;5016746;28;20040;-24
2024/01/01 06:56:58;;;;;;;3.03;1.90;;;;;;;;;;5016899;28;20037;-22
2024/01/01 06:59:30;;;;;;;3.78;2.20;;;;;;;;;;5016651;28;20101;-23
2024/01/01 07:01:58;;;;;;;3.00;1.92;;;;;;;;;;5016105;28;20022;-24
2024/01/01 07:04:25;;;;;;;2.42;1.80;;;;;;;;;;5016062;28;20116;-24
2024/01/01 07:06:51;;;;;;;3.15;2.05;;;;;;;;;;5016797;28;20022;-24
2024/01/01 07:09:17;;;;;;;3.28;1.80;;;;;;;;;;5016478;28;20037;-23
2024/01/01 07:11:44;;;;;;;2.70;1.55;;;;;;;;;;5016344;28;20033;-23
2024/01/01 07:14:10;;;;;;;2.88;1.85;;;;;;;;;;5016655;28;20041;-25
2024/01/01 07:16:37;;;;;;;3.38;1.83;;;;;;;;;;5016494;28;20108;-23
2024/01/01 07:19:03;;;;;;;3.40;2.00;;;;;;;;;;5016528;28;20038;-24
2024/01/01 07:21:29;;;;;;;4.60;2.97;;;;;;;;;;5016266;28;20030;-24
2024/01/01 07:23:55;;;;;;;3.67;1.80;;;;;;;;;;5016169;28;20030;-24
2024/01/01 07:26:21;;;;;;;3.00;1.48;;;;;;;;;;5016209;28;20487;-22
2024/01/01 07:28:47;;;;;;;3.80;1.85;;;;;;;;;;4998863;28;20487;-23
2024/01/01 07:31:13;;;;;;;5.22;1.67;;;;;;;;;;5016058;28;20061;-24
2024/01/01 07:33:40;;;;;;;2.50;1.70;;;;;;;;;;5015953;28;20032;-22
2024/01/01 07:36:12;;;;;;;2.15;1.48;;;;;;;;;;5015945;28;20033;-22
2024/01/01 07:38:41;;;;;;;3.13;2.03;;;;;;;;;;5016225;28;20036;-22
2024/01/01 07:41:07;;;;;;;3.30;1.77;;;;;;;;;;5016194;28;20017;-23
2024/01/01 07:43:34;;;;;;;2.05;1.58;;;;;;;;;;5015816;28;20030;-24
2024/01/01 07:46:00;;;;;;;3.58;1.90;;;;;;;;;;5015792;28;20022;-24
2024/01/01 07:48:27;;;;;;;2.80;1.85;;;;;;;;;;5016263;28;20029;-24
2024/01/01 07:50:53;;;;;;;2.67;1.30;;;;;;;;;;5015769;28;20021;-24
2024/01/01 07:53:19;;;;;;;2.85;1.60;;;;;;;;;;5015644;28;20055;-22
2024/01/01 07:55:46;;;;;;;3.03;1.65;;;;;;;;;;5015955;28;20387;-24
2024/01/01 07:58:12;;;;;;;3.25;2.22;;;;;;;;;;5015792;28;20033;-23
2024/01/01 08:00:39;;;;;;;2.38;1.40;;;;;;;;;;5015607;28;20041;-24
2024/01/01 08:03:05;;;;;;;4.20;2.13;;;;;;;;;;5015077;28;20052;-23
2024/01/01 08:05:31;;;;;;;2.97;1.80;;;;;;;;;;5015750;28;20022;-24
2024/01/01 08:07:58;;;;;;;5.05;1.80;;;;;;;;;;5015709;28;20030;-24
2024/01/01 08:10:24;;;;;;;4.30;2.92;;;;;;;;;;5015634;28;20337;-24
2024/01/01 08:12:50;;;;;;;2.50;1.88;;;;;;;;;;5015295;28;20029;-24
2024/01/01 08:15:16;;;;;;;1.92;1.35;;;;;;;;;;5015099;28;20060;-24
2024/01/01 08:17:42;;;;;;;2.33;1.52;;;;;;;;;;5015467;28;20122;-24
2024/01/01 08:20:09;;;;;;;2.60;2.00;;;;;;;;;;5015222;28;20109;-24
2024/01/01 08:22:35;;;;;;;1.85;1.25;;;;;;;;;;5015136;28;20025;-24
2024/01/01 08:25:01;;;;;;;1.60;1.50;;;;;;;;;;5015447;28;20014;-24
2024/01/01 08:27:27;;;;;;;2.92;1.60;;;;;;;;;;5015383;28;20469;-24
2024/01/01 08:29:53;;;;;;;2.72;1.17;;;;;;;;;;5015091;28;20034;-25
2024/01/01 08:32:19;;;;;;;2.03;1.60;;;;;;;;;;5015012;28;20026;-24
2024/01/01 08:34:45;;;;;;;3.92;1.80;;;;;;;;;;4997746;28;20488;-25
2024/01/01 08:37:11;;;;;;;2.80;2.03;;;;;;;;;;5014900;28;20029;-24
2024/01/01 08:39:37;;;;;;;2.25;1.83;;;;;;;;;;5014957;28;20030;-24
2024/01/01 08:42:04;;;;;;;1.90;1.23;;;;;;;;;;5015126;28;20037;-24
2024/01/01 08:44:30;;;;;;;1.77;1.27;;;;;;;;;;5015194;28;20022;-24
2024/01/01 08:46:56;;;;;;;2.03;1.60;;;;;;;;;;5015420;28;20033;-25
2024/01/01 08:49:22;;;;;;;2.95;1.80;;;;;;;;;;5015165;28;20355;-24
2024/01/01 08:51:48;;;;;;;2.17;1.60;;;;;;;;;;5014769;28;20084;-25
2024/01/01 08:54:16;;;;;;;3.67;1.85;;;;;;;;;;5014820;28;20045;-24
2024/01/01 08:56:43;;;;;;;2.53;1.75;;;;;;;;;;5014979;28;20040;-24
2024/01/01 08:59:10;;;;;;;3.25;1.95;;;;;;;;;;5014728;28;20030;-24
2024/01/01 09:01:36;;;;;;;2.85;1.90;;;;;;;;;;5014743;28;20057;-24
2024/01/01 09:04:04;;;;;;;3.05;1.73;;;;;;;;;;5014510;28;20415;-24
2024/01/01 09:06:31;;;;;;;1.98;1.48;;;;;;;;;;5014926;28;20165;-24
2024/01/01 09:08:58;;;;;;;1.80;1.70;;;;;;;;;;5014730;28;20029;-24
2024/01/01 09:11:24;;;;;;;2.80;1.80;;;;;;;;;;5014924;28;20037;-25
2024/01/01 09:13:51;;;;;;;3.53;1.75;;;;;;;;;;5014472;28;20037;-24
2024/01/01 09:16:17;;;;;;;2.38;1.73;;;;;;;;;;5014533;28;20045;-25
2024/01/01 09:18:43;;;;;;;2.38;1.75;;;;;;;;;;5014835;28;20080;-25
2024/01/01 09:21:16;;;;;;;2.75;2.03;;;;;;;;;;5014592;28;20408;-24
2024/01/01 09:23:42;;;;;;;2.47;1.58;;;;;;;;;;5014764;28;20030;-24
2024/01/01 09:26:08;;;;;;;2.38;1.92;;;;;;;;;;5016064;28;20115;-26
2024/01/01 09:28:36;;;;;;;2.97;2.25;;;;;;;;;;5018595;28;20517;-24
2024/01/01 09:31:02;;;;;;;1.58;1.35;;;;;;;;;;5018316;28;20060;-24
2024/01/01 09:33:29;;;;;;;1.83;1.50;;;;;;;;;;5018225;28;20108;-24
2024/01/01 09:35:55;;;;;;;2.50;1.73;;;;;;;;;;5018249;28;20404;-25
2024/01/01 09:38:21;;;;;;;2.53;1.58;;;;;;;;;;5018328;28;20345;-25
2024/01/01 09:40:48;;;;;;;2.28;1.45;;;;;;;;;;5018156;28;20508;-25
2024/01/01 09:43:18;;;;;;;2.25;1.63;;;;;;;;;;5000751;28;20433;-24
2024/01/01 09:45:47;;;;;;;3.88;1.42;;;;;;;;;;5018310;28;20041;-24
2024/01/01 09:48:14;;;;;;;1.98;1.77;;;;;;;;;;5018267;28;20037;-24
2024/01/01 09:50:42;;;;;;;2.63;1.60;;;;;;;;;;5017911;28;20518;-24
2024/01/01 09:53:08;;;;;;;1.98;1.52;;;;;;;;;;5018101;28;20044;-24
2024/01/01 09:55:34;;;;;;;3.38;1.95;;;;;;;;;;5018137;28;20034;-24
2024/01/01 09:58:00;;;;;;;2.22;1.70;;;;;;;;;;5017780;28;20117;-24
2024/01/01 10:00:26;;;;;;;2.50;1.77;;;;;;;;;;5017729;28;20048;-24
2024/01/01 10:03:06;;;;;;;3.10;2.05;;;;;;;;;;5000256;28;20057;-24
2024/01/01 10:05:32;;;;;;;3.17;2.08;;;;;;;;;;5017579;28;20025;-24
2024/01/01 10:08:07;;;;;;;3.05;1.80;;;;;;;;;;5017900;28;20029;-24
2024/01/01 10:10:34;;;;;;;4.28;1.77;;;;;;;;;;5018120;28;20052;-23
2024/01/01 10:13:10;;;;;;;2.03;1.40;;;;;;;;;;5017483;28;20512;-24
2024/01/01 10:15:40;;;;;;;2.55;1.75;;;;;;;;;;5017485;28;20360;-24
2024/01/01 10:18:10;;;;;;;2.88;1.98;;;;;;;;;;5017337;28;20021;-24
2024/01/01 10:20:36;;;;;;;2.10;1.83;;;;;;;;;;5017345;28;20479;-24
2024/01/01 10:23:23;;;;;;;3.15;1.83;;;;;;;;;;5017371;28;20097;-24
2024/01/01 10:25:52;;;;;;;3.03;1.40;;;;;;;;;;5017169;28;20030;-24
2024/01/01 10:28:24;;;;;;;2.17;1.73;;;;;;;;;;5017288;28;20364;-26
2024/01/01 10:30:50;;;;;;;3.33;1.92;;;;;;;;;;5017516;28;20364;-24
2024/01/01 10:33:16;;;;;;;3.88;2.28;;;;;;;;;;5017089;28;20030;-24
2024/01/01 10:35:43;;;;;;;3.13;1.80;;;;;;;;;;5017078;28;20099;-24
2024/01/01 10:38:13;;;;;;;3.20;1.70;;;;;;;;;;5016926;28;20429;-24
2024/01/01 10:40:39;;;;;;;3.85;2.30;;;;;;;;;;5017546;28;20156;-24
2024/01/01 10:43:07;;;;;;;1.70;1.60;;;;;;;;;;5016920;28;20155;-24
2024/01/01 10:45:33;;;;;;;2.00;1.70;;;;;;;;;;5017209;28;20113;-24
2024/01/01 10:48:00;;;;;;;1.67;1.58;;;;;;;;;;5016975;28;20575;-24
2024/01/01 10:50:26;;;;;;;2.30;1.55;;;;;;;;;;5016778;28;20113;-24
2024/01/01 10:53:12;;;;;;;2.03;1.77;;;;;;;;;;5016778;28;20033;-24
2024/01/01 10:56:05;;;;;;;4.68;1.65;;;;;;;;;;4999494;28;20113;-25
2024/01/01 10:58:47;;;;;;;2.63;1.83;;;;;;;;;;4980277;28;20127;-25
2024/01/01 11:01:15;;;;;;;3.30;1.65;;;;;;;;;;5016693;28;20073;-24
2024/01/01 11:03:46;;;;;;;2.88;2.15;;;;;;;;;;5016380;28;20120;-24
2024/01/01 11:06:30;;;;;;;3.75;1.92;;;;;;;;;;5016868;28;20040;-24
2024/01/01 11:08:57;;;;;;;3.38;1.80;;;;;;;;;;5016835;28;20056;-24
2024/01/01 11:11:32;;;;;;;3.50;2.45;;;;;;;;;;4999238;28;20468;-24
2024/01/01 11:13:58;;;;;;;2.10;1.50;;;;;;;;;;5016362;28;20029;-24
2024/01/01 11:16:26;;;;;;;2.22;1.48;;;;;;;;;;5016538;28;20022;-24
2024/01/01 11:18:52;;;;;;;3.15;1.60;;;;;;;;;;5016315;28;20073;-24
2024/01/01 11:21:29;;;;;;;3.58;2.50;;;;;;;;;;5016309;28;20026;-24
2024/01/01 11:23:55;;;;;;;2.08;1.60;;;;;;;;;;5016166;28;20084;-24
2024/01/01 11:26:24;;;;;;;2.83;2.28;;;;;;;;;;5016107;28;20025;-25
2024/01/01 11:28:51;;;;;;;2.63;1.90;;;;;;;;;;5016368;28;20029;-24
2024/01/01 11:31:17;;;;;;;3.08;1.92;;;;;;;;;;5016023;28;20021;-25
2024/01/01 11:33:43;;;;;;;3.58;1.23;;;;;;;;;;5016095;28;20022;-24
2024/01/01 11:36:09;;;;;;;2.65;1.95;;;;;;;;;;5016178;28;20026;-24
2024/01/01 11:38:39;;;;;;;2.60;1.88;;;;;;;;;;5016215;28;20043;-24
2024/01/01 11:41:05;;;;;;;1.63;1.35;;;;;;;;;;5016471;28;20088;-24
2024/01/01 11:43:32;;;;;;;3.20;1.98;;;;;;;;;;5015716;28;20036;-24
2024/01/01 11:45:58;;;;;;;4.05;1.63;;;;;;;;;;5015859;28;20026;-25
2024/01/01 11:48:25;;;;;;;2.40;2.17;;;;;;;;;;5015206;28;20022;-25
2024/01/01 11:50:53;;;;;;;1.80;1.25;;;;;;;;;;4998478;28;20168;-24
2024/01/01 11:53:20;;;;;;;2.25;1.92;;;;;;;;;;5015664;28;20025;-24
2024/01/01 11:55:46;;;;;;;3.50;1.92;;;;;;;;;;5016180;28;20053;-25
2024/01/01 11:58:12;;;;;;;4.78;2.00;;;;;;;;;;5015779;28;20456;-24
2024/01/01 12:00:38;;;;;;;1.80;1.70;;;;;;;;;;5015586;28;20101;-25
2024/01/01 12:03:05;;;;;;;1.85;1.58;;;;;;;;;;5015699;28;20050;-24
2024/01/01 12:05:32;;;;;;;2.92;1.80;;;;;;;;;;5015753;28;20197;-24
2024/01/01 12:08:00;;;;;;;2.30;1.48;;;;;;;;;;5015725;28;20030;-24
2024/01/01 12:10:28;;;;;;;3.22;1.77;;;;;;;;;;5015611;28;20374;-25
2024/01/01 12:13:03;;;;;;;3.88;1.52;;;;;;;;;;5015289;28;20065;-25
2024/01/01 12:15:32;;;;;;;2.42;1.40;;;;;;;;;;5015614;28;20037;-25
2024/01/01 12:17:59;;;;;;;1.92;1.40;;;;;;;;;;5015511;28;20471;-25
2024/01/01 12:20:25;;;;;;;2.42;2.03;;;;;;;;;;5015170;28;20101;-25
2024/01/01 12:22:52;;;;;;;2.53;1.75;;;;;;;;;;5015077;28;20456;-25
2024/01/01 12:25:24;;;;;;;3.13;1.63;;;;;;;;;;5015201;28;20038;-24
2024/01/01 12:28:03;;;;;;;3.88;1.80;;;;;;;;;;5015151;28;20025;-24
2024/01/01 12:30:30;;;;;;;2.97;2.20;;;;;;;;;;5015056;28;20055;-24
2024/01/01 12:32:59;;;;;;;2.83;2.00;;;;;;;;;;4997778;28;20124;-25
2024/01/01 12:35:25;;;;;;;2.80;2.60;;;;;;;;;;5014966;28;20026;-24
2024/01/01 12:37:52;;;;;;;3.00;1.80;;;;;;;;;;5015211;28;20361;-24
2024/01/01 12:40:18;;;;;;;2.30;1.55;;;;;;;;;;5015015;28;20022;-24
2024/01/01 12:42:45;;;;;;;1.83;1.35;;;;;;;;;;5014840;28;20026;-24
2024/01/01 12:45:14;;;;;;;3.35;2.08;;;;;;;;;;5015203;28;20053;-25
2024/01/01 12:47:41;;;;;;;3.67;1.83;;;;;;;;;;5014859;28;20029;-25
2024/01/01 12:50:08;;;;;;;2.08;1.60;;;;;;;;;;5015137;28;20357;-25
2024/01/01 12:52:38;;;;;;;1.65;1.50;;;;;;;;;;5014762;28;20026;-24
2024/01/01 12:55:04;;;;;;;2.35;1.60;;;;;;;;;;5014803;28;20052;-24
2024/01/01 12:57:30;;;;;;;2.33;1.42;;;;;;;;;;5014678;28;20457;-24
2024/01/01 12:59:56;;;;;;;2.70;1.65;;;;;;;;;;5014776;28;20111;-24
2024/01/01 13:02:23;;;;;;;3.20;1.92;;;;;;;;;;5018684;28;20026;-24
2024/01/01 13:04:49;;;;;;;1.98;1.58;;;;;;;;;;5018635;28;20133;-25
2024/01/01 13:07:15;;;;;;;1.52;1.42;;;;;;;;;;5019029;28;20056;-25
2024/01/01 13:09:41;;;;;;;3.15;2.38;;;;;;;;;;5018976;28;20036;-25
2024/01/01 13:12:07;;;;;;;4.53;1.70;;;;;;;;;;5018835;28;20026;-25
2024/01/01 13:14:33;;;;;;;2.25;1.75;;;;;;;;;;5018651;28;20048;-25
2024/01/01 13:17:05;;;;;;;2.03;1.50;;;;;;;;;;5018539;28;20037;-25
2024/01/01 13:19:35;;;;;;;2.42;1.55;;;;;;;;;;5018556;28;20030;-24
2024/01/01 13:22:02;;;;;;;3.15;2.05;;;;;;;;;;5018438;28;20030;-25
2024/01/01 13:24:28;;;;;;;3.03;1.77;;;;;;;;;;5018405;28;20112;-24
2024/01/01 13:26:56;;;;;;;2.60;1.65;;;;;;;;;;5018406;28;20030;-24
2024/01/01 13:29:22;;;;;;;2.55;1.90;;;;;;;;;;5018386;28;20191;-24
2024/01/01 13:31:48;;;;;;;2.80;1.85;;;;;;;;;;5018257;28;20040;-24
2024/01/01 13:34:14;;;;;;;3.20;1.90;;;;;;;;;;5018309;28;20033;-24
2024/01/01 13:36:41;;;;;;;2.28;1.70;;;;;;;;;;5018446;28;20334;-25
2024/01/01 13:39:07;;;;;;;4.53;1.77;;;;;;;;;;5018492;28;20520;-25
2024/01/01 13:41:34;;;;;;;1.77;1.42;;;;;;;;;;5018167;28;20030;-24
2024/01/01 13:44:00;;;;;;;2.53;2.17;;;;;;;;;;5018289;28;20041;-25
2024/01/01 13:46:26;;;;;;;3.75;2.63;;;;;;;;;;5018060;28;20022;-24
2024/01/01 13:48:53;;;;;;;3.25;2.00;;;;;;;;;;5018293;28;20049;-24
2024/01/01 13:51:19;;;;;;;2.60;2.15;;;;;;;;;;5018272;28;20338;-24
2024/01/01 13:53:46;;;;;;;3.72;1.73;;;;;;;;;;5018092;28;20040;-24
2024/01/01 13:56:21;;;;;;;3.67;1.98;;;;;;;;;;5018082;28;20037;-25
2024/01/01 13:58:49;;;;;;;3.35;2.03;;;;;;;;;;5018133;28;20041;-24
2024/01/01 14:01:15;;;;;;;2.50;1.85;;;;;;;;;;5018034;28;20477;-24
2024/01/01 14:03:43;;;;;;;3.22;1.90;;;;;;;;;;5017491;28;20428;-24
2024/01/01 14:06:11;;;;;;;2.35;1.60;;;;;;;;;;5017659;28;20556;-24
2024/01/01 14:08:37;;;;;;;4.53;2.05;;;;;;;;;;5017867;28;20392;-24
2024/01/01 14:11:04;;;;;;;2.72;1.83;;;;;;;;;;5017329;28;20026;-24
2024/01/01 14:13:30;;;;;;;3.08;1.90;;;;;;;;;;5017334;28;20101;-24
2024/01/01 14:15:56;;;;;;;2.85;1.77;;;;;;;;;;5017805;28;20054;-24
2024/01/01 14:18:23;;;;;;;2.70;2.00;;;;;;;;;;5017426;28;20037;-24
2024/01/01 14:20:49;;;;;;;3.15;1.73;;;;;;;;;;5017451;28;20036;-24
2024/01/01 14:23:15;;;;;;;2.67;1.83;;;;;;;;;;5017344;28;20022;-24
2024/01/01 14:25:44;;;;;;;2.70;2.10;;;;;;;;;;5017485;28;20095;-24
2024/01/01 14:28:10;;;;;;;2.08;1.45;;;;;;;;;;5018085;28;20028;-24
2024/01/01 14:30:36;;;;;;;2.03;1.58;;;;;;;;;;5017251;28;20026;-24
2024/01/01 14:33:02;;;;;;;5.13;2.33;;;;;;;;;;5017463;28;20030;-24
2024/01/01 14:35:28;;;;;;;3.80;1.98;;;;;;;;;;5017417;28;20105;-24
2024/01/01 14:37:54;;;;;;;2.30;1.98;;;;;;;;;;5017054;28;20465;-24
2024/01/01 14:40:20;;;;;;;2.33;1.65;;;;;;;;;;5017325;28;20049;-25
2024/01/01 14:42:47;;;;;;;2.88;1.67;;;;;;;;;;5016936;28;20453;-25
2024/01/01 14:45:13;;;;;;;3.80;2.17;;;;;;;;;;5016981;28;20026;-24